createdAt,value
2022-10-28T00:01:04.368Z,14.14
2022-10-28T00:03:06.707Z,14.25
2022-10-28T00:05:09.095Z,14.25
2022-10-28T00:07:11.254Z,14.23
2022-10-28T00:09:13.427Z,14.20
2022-10-28T00:11:18.267Z,14.13
2022-10-28T00:13:20.329Z,14.12
2022-10-28T00:15:22.344Z,14.09
2022-10-28T00:19:26.694Z,14.10
2022-10-28T00:21:31.915Z,14.10
2022-10-28T00:23:34.293Z,14.10
2022-10-28T00:25:36.528Z,14.09
2022-10-28T00:27:38.651Z,14.08
2022-10-28T00:29:40.778Z,14.08
2022-10-28T00:31:43.833Z,14.07
2022-10-28T00:37:40.971Z,14.01
2022-10-28T00:39:43.007Z,14.00
2022-10-28T00:41:51.335Z,13.94
2022-10-28T00:43:58.653Z,13.96
2022-10-28T00:46:01.430Z,13.97
2022-10-28T00:48:05.035Z,13.96
2022-10-28T00:50:28.254Z,13.93
2022-10-28T00:52:32.005Z,13.92
2022-10-28T00:54:35.754Z,13.91
2022-10-28T00:56:42.370Z,13.87
2022-10-28T00:58:48.267Z,13.89
2022-10-28T01:00:50.626Z,13.88
2022-10-28T01:02:52.936Z,13.88
2022-10-28T01:04:55.386Z,13.90
2022-10-28T01:07:00.155Z,13.87
2022-10-28T01:09:02.249Z,13.84
2022-10-28T01:11:13.792Z,13.78
2022-10-28T01:13:45.506Z,13.78
2022-10-28T01:16:22.092Z,13.76
2022-10-28T01:18:54.174Z,13.77
2022-10-28T01:21:37.353Z,13.68
2022-10-28T01:24:04.485Z,13.70
2022-10-28T01:26:36.833Z,13.68
2022-10-28T01:28:57.005Z,13.66
2022-10-28T01:31:26.690Z,13.65
2022-10-28T01:33:41.713Z,13.63
2022-10-28T01:35:52.472Z,13.70
2022-10-28T01:38:16.643Z,13.56
2022-10-28T01:40:31.762Z,13.60
2022-10-28T01:42:39.009Z,13.58
2022-10-28T01:45:21.594Z,13.54
2022-10-28T01:47:43.510Z,13.58
2022-10-28T01:49:55.016Z,13.58
2022-10-28T01:52:03.987Z,13.56
2022-10-28T01:54:12.520Z,13.58
2022-10-28T01:56:19.202Z,13.57
2022-10-28T01:58:28.906Z,13.48
2022-10-28T02:00:34.189Z,13.46
2022-10-28T02:02:38.822Z,13.40
2022-10-28T02:04:40.784Z,13.43
2022-10-28T02:06:47.838Z,13.44
2022-10-28T02:09:08.264Z,13.45
2022-10-28T02:11:22.585Z,13.42
2022-10-28T02:13:38.415Z,13.40
2022-10-28T02:16:18.667Z,13.40
2022-10-28T02:18:35.430Z,13.40
2022-10-28T02:20:53.407Z,13.33
2022-10-28T02:23:18.401Z,13.29
2022-10-28T02:25:25.555Z,13.27
2022-10-28T02:27:56.828Z,13.26
2022-10-28T02:30:24.399Z,13.27
2022-10-28T02:32:32.417Z,13.33
2022-10-28T02:34:40.530Z,13.32
2022-10-28T02:36:46.864Z,13.31
2022-10-28T02:38:59.224Z,13.27
2022-10-28T02:41:13.526Z,13.27
2022-10-28T02:43:17.945Z,13.29
2022-10-28T02:45:24.246Z,13.27
2022-10-28T02:47:32.115Z,13.25
2022-10-28T02:49:38.494Z,13.24
2022-10-28T02:51:52.435Z,13.14
2022-10-28T02:54:30.088Z,13.17
2022-10-28T02:56:37.661Z,13.22
2022-10-28T02:58:40.852Z,13.24
2022-10-28T03:00:47.430Z,13.18
2022-10-28T03:02:49.678Z,13.17
2022-10-28T03:04:51.753Z,13.08
2022-10-28T03:06:53.686Z,13.06
2022-10-28T03:08:58.522Z,13.05
2022-10-28T03:11:00.772Z,13.01
2022-10-28T03:13:03.087Z,13.05
2022-10-28T03:15:05.424Z,13.11
2022-10-28T03:17:07.941Z,13.12
2022-10-28T03:19:10.210Z,13.11
2022-10-28T03:21:12.444Z,13.12
2022-10-28T03:23:14.664Z,13.14
2022-10-28T03:25:17.068Z,13.12
2022-10-28T03:27:18.980Z,13.12
2022-10-28T03:29:21.414Z,13.10
2022-10-28T03:31:23.678Z,13.10
2022-10-28T03:33:25.716Z,13.07
2022-10-28T03:35:27.865Z,13.05
2022-10-28T03:37:29.931Z,13.05
2022-10-28T03:39:32.026Z,13.04
2022-10-28T03:41:34.088Z,13.01
2022-10-28T03:43:36.116Z,13.01
2022-10-28T03:45:38.288Z,13.00
2022-10-28T03:47:40.701Z,12.98
2022-10-28T03:49:42.938Z,12.99
2022-10-28T03:51:45.034Z,12.96
2022-10-28T03:53:47.448Z,12.99
2022-10-28T03:55:56.640Z,12.92
2022-10-28T03:58:01.249Z,12.91
2022-10-28T04:00:04.773Z,12.88
2022-10-28T04:02:15.852Z,12.88
2022-10-28T04:04:18.421Z,12.88
2022-10-28T04:06:20.468Z,12.86
2022-10-28T04:08:22.720Z,12.87
2022-10-28T04:10:24.666Z,12.85
2022-10-28T04:12:26.589Z,12.85
2022-10-28T04:14:28.539Z,12.83
2022-10-28T04:16:30.810Z,12.82
2022-10-28T04:18:32.955Z,12.79
2022-10-28T04:20:35.373Z,12.79
2022-10-28T04:22:37.811Z,12.79
2022-10-28T04:24:42.267Z,12.80
2022-10-28T04:26:44.413Z,12.76
2022-10-28T04:28:49.750Z,12.72
2022-10-28T04:30:51.987Z,12.74
2022-10-28T04:32:54.186Z,12.70
2022-10-28T04:34:56.248Z,12.63
2022-10-28T04:36:58.528Z,12.62
2022-10-28T04:39:00.491Z,12.51
2022-10-28T04:41:02.609Z,12.45
2022-10-28T04:43:08.452Z,12.50
2022-10-28T04:45:12.381Z,12.48
2022-10-28T04:47:14.582Z,12.39
2022-10-28T04:49:16.657Z,12.45
2022-10-28T04:51:18.736Z,12.41
2022-10-28T04:53:21.956Z,12.46
2022-10-28T04:55:27.308Z,12.48
2022-10-28T04:57:33.106Z,12.46
2022-10-28T04:59:35.351Z,12.45
2022-10-28T05:01:38.088Z,12.48
2022-10-28T05:03:40.201Z,12.48
2022-10-28T05:05:42.580Z,12.49
2022-10-28T05:08:09.871Z,12.41
2022-10-28T05:10:18.452Z,12.49
2022-10-28T05:12:20.474Z,12.44
2022-10-28T05:14:22.597Z,12.46
2022-10-28T05:16:24.618Z,12.48
2022-10-28T05:18:26.930Z,12.44
2022-10-28T05:20:29.274Z,12.43
2022-10-28T05:22:31.530Z,12.36
2022-10-28T05:24:35.654Z,12.37
2022-10-28T05:26:38.108Z,12.38
2022-10-28T05:28:40.275Z,12.35
2022-10-28T05:30:42.929Z,12.37
2022-10-28T05:32:45.315Z,12.35
2022-10-28T05:34:47.069Z,12.36
2022-10-28T05:36:50.920Z,12.39
2022-10-28T05:38:52.793Z,12.41
2022-10-28T05:40:54.982Z,12.45
2022-10-28T05:42:57.076Z,12.47
2022-10-28T05:44:58.932Z,12.47
2022-10-28T05:47:27.772Z,12.39
2022-10-28T05:49:29.796Z,12.53
2022-10-28T05:51:32.178Z,12.55
2022-10-28T05:53:34.131Z,12.57
2022-10-28T05:55:36.880Z,12.63
2022-10-28T05:57:40.014Z,12.70
2022-10-28T05:59:42.245Z,12.79
2022-10-28T06:01:44.325Z,12.82
2022-10-28T06:03:47.915Z,12.90
2022-10-28T06:05:50.162Z,12.97
2022-10-28T06:07:52.051Z,13.05
2022-10-28T06:09:53.857Z,13.10
2022-10-28T06:11:54.267Z,13.21
2022-10-28T06:14:51.303Z,13.29
2022-10-28T06:16:53.207Z,13.46
2022-10-28T06:18:55.105Z,13.51
2022-10-28T06:20:58.232Z,13.60
2022-10-28T06:23:00.153Z,13.67
2022-10-28T06:25:02.597Z,13.81
2022-10-28T06:27:07.456Z,13.87
2022-10-28T06:29:10.018Z,14.02
2022-10-28T06:31:17.449Z,14.07
2022-10-28T06:33:22.436Z,14.19
2022-10-28T06:35:24.893Z,14.28
2022-10-28T06:37:28.293Z,14.40
2022-10-28T06:39:30.067Z,14.47
2022-10-28T06:41:32.127Z,14.56
2022-10-28T06:43:34.195Z,14.67
2022-10-28T06:45:35.997Z,14.67
2022-10-28T06:47:41.510Z,14.76
2022-10-28T06:49:43.794Z,14.86
2022-10-28T06:51:45.585Z,14.83
2022-10-28T06:53:51.743Z,14.83
2022-10-28T06:55:58.560Z,14.86
2022-10-28T06:58:02.113Z,14.96
2022-10-28T07:00:04.906Z,15.00
2022-10-28T07:02:06.986Z,15.03
2022-10-28T07:04:12.921Z,14.95
2022-10-28T07:06:16.780Z,15.12
2022-10-28T07:08:19.079Z,15.18
2022-10-28T07:10:21.104Z,15.22
2022-10-28T07:12:23.050Z,15.23
2022-10-28T07:14:24.968Z,15.37
2022-10-28T07:16:26.827Z,15.45
2022-10-28T07:18:30.058Z,15.50
2022-10-28T07:20:33.049Z,15.45
2022-10-28T07:22:34.872Z,15.42
2022-10-28T07:24:36.624Z,15.46
2022-10-28T07:26:39.112Z,15.56
2022-10-28T07:28:42.927Z,15.66
2022-10-28T07:30:45.005Z,15.60
2022-10-28T07:32:46.844Z,15.65
2022-10-28T07:34:49.063Z,15.72
2022-10-28T07:36:55.106Z,15.77
2022-10-28T07:38:59.923Z,15.86
2022-10-28T07:41:09.588Z,15.84
2022-10-28T07:43:11.643Z,15.94
2022-10-28T07:45:13.971Z,16.08
2022-10-28T07:47:17.822Z,16.29
2022-10-28T07:49:19.780Z,16.37
2022-10-28T07:51:21.923Z,16.47
2022-10-28T07:53:26.313Z,16.61
2022-10-28T07:55:30.770Z,16.65
2022-10-28T07:57:44.966Z,16.74
2022-10-28T07:59:46.806Z,16.80
2022-10-28T08:01:49.047Z,16.90
2022-10-28T08:03:51.292Z,17.00
2022-10-28T08:06:01.492Z,16.94
2022-10-28T08:08:03.727Z,17.07
2022-10-28T08:10:09.262Z,17.17
2022-10-28T08:12:40.002Z,17.28
2022-10-28T08:14:42.290Z,17.39
2022-10-28T08:16:45.501Z,17.48
2022-10-28T08:18:47.814Z,17.59
2022-10-28T08:20:50.074Z,17.64
2022-10-28T08:22:52.525Z,17.74
2022-10-28T08:24:54.911Z,17.83
2022-10-28T08:26:57.205Z,17.94
2022-10-28T08:29:01.643Z,18.01
2022-10-28T08:31:09.687Z,18.03
2022-10-28T08:33:12.383Z,18.08
2022-10-28T08:35:14.481Z,18.12
2022-10-28T08:37:16.584Z,18.20
2022-10-28T08:39:18.582Z,18.23
2022-10-28T08:41:59.267Z,18.24
2022-10-28T08:44:19.875Z,18.31
2022-10-28T08:46:32.493Z,18.35
2022-10-28T08:48:36.923Z,18.41
2022-10-28T08:50:48.293Z,18.47
2022-10-28T08:53:18.047Z,18.51
2022-10-28T08:55:46.286Z,18.56
2022-10-28T08:57:55.828Z,18.63
2022-10-28T09:00:00.121Z,18.74
2022-10-28T09:02:26.217Z,18.81
2022-10-28T09:04:38.836Z,18.90
2022-10-28T09:06:40.721Z,18.95
2022-10-28T09:08:46.817Z,18.96
2022-10-28T09:11:21.312Z,19.02
2022-10-28T09:14:19.811Z,19.05
2022-10-28T09:16:47.013Z,19.11
2022-10-28T09:18:56.656Z,19.19
2022-10-28T09:21:05.228Z,19.27
2022-10-28T09:23:22.601Z,19.27
2022-10-28T09:25:58.938Z,19.32
2022-10-28T09:28:19.033Z,19.37
2022-10-28T09:30:45.275Z,19.39
2022-10-28T09:33:04.255Z,19.46
2022-10-28T09:35:14.169Z,19.51
2022-10-28T09:37:31.056Z,19.57
2022-10-28T09:39:41.970Z,19.67
2022-10-28T09:41:46.033Z,19.79
2022-10-28T09:44:04.822Z,19.81
2022-10-28T09:46:23.997Z,19.90
2022-10-28T09:48:33.199Z,19.96
2022-10-28T09:51:02.633Z,20.00
2022-10-28T09:53:33.716Z,20.11
2022-10-28T09:56:03.881Z,20.16
2022-10-28T09:58:06.037Z,20.29
2022-10-28T10:00:14.910Z,20.35
2022-10-28T10:02:28.366Z,20.35
2022-10-28T10:04:35.882Z,20.46
2022-10-28T10:06:40.246Z,20.53
2022-10-28T10:09:36.645Z,20.54
2022-10-28T10:11:45.110Z,20.64
2022-10-28T10:13:47.696Z,20.74
2022-10-28T10:15:55.268Z,20.79
2022-10-28T10:18:00.514Z,20.85
2022-10-28T10:20:05.126Z,20.87
2022-10-28T10:22:07.107Z,20.92
2022-10-28T10:24:31.047Z,20.94
2022-10-28T10:26:33.554Z,20.99
2022-10-28T10:28:47.989Z,20.98
2022-10-28T10:30:53.494Z,21.05
2022-10-28T10:32:56.752Z,21.14
2022-10-28T10:35:04.448Z,21.16
2022-10-28T10:37:18.947Z,21.20
2022-10-28T10:39:26.949Z,21.29
2022-10-28T10:41:42.206Z,21.32
2022-10-28T10:43:44.367Z,21.37
2022-10-28T10:46:03.230Z,21.35
2022-10-28T10:48:13.283Z,21.42
2022-10-28T10:52:51.341Z,21.47
2022-10-28T10:55:23.949Z,21.55
2022-10-28T10:57:26.704Z,21.57
2022-10-28T10:59:31.577Z,21.62
2022-10-28T11:01:37.073Z,21.60
2022-10-28T11:03:49.561Z,21.57
2022-10-28T11:06:30.894Z,21.63
2022-10-28T11:08:35.644Z,21.76
2022-10-28T11:10:37.804Z,21.80
2022-10-28T11:12:52.716Z,21.79
2022-10-28T11:15:16.965Z,21.85
2022-10-28T11:17:28.554Z,21.88
2022-10-28T11:19:38.052Z,21.89
2022-10-28T11:21:57.436Z,21.91
2022-10-28T11:24:21.296Z,21.95
2022-10-28T11:26:25.212Z,22.02
2022-10-28T11:28:54.902Z,21.98
2022-10-28T11:31:49.484Z,22.05
2022-10-28T11:34:19.247Z,22.08
2022-10-28T11:36:50.651Z,22.04
2022-10-28T11:38:55.783Z,22.14
2022-10-28T11:41:18.035Z,22.14
2022-10-28T11:43:33.523Z,22.22
2022-10-28T11:45:48.601Z,22.23
2022-10-28T11:48:14.073Z,22.26
2022-10-28T11:50:24.976Z,22.25
2022-10-28T11:52:33.252Z,22.29
2022-10-28T11:55:14.631Z,22.30
2022-10-28T11:57:24.320Z,22.34
2022-10-28T11:59:50.232Z,22.34
2022-10-28T12:01:58.592Z,22.35
2022-10-28T12:04:33.041Z,22.35
2022-10-28T12:06:56.315Z,22.34
2022-10-28T12:09:01.378Z,22.36
2022-10-28T12:11:38.492Z,22.38
2022-10-28T12:13:45.803Z,22.33
2022-10-28T12:16:15.753Z,22.33
2022-10-28T12:18:33.816Z,22.34
2022-10-28T12:21:08.576Z,22.40
2022-10-28T12:23:18.473Z,22.39
2022-10-28T12:25:27.801Z,22.40
2022-10-28T12:27:38.327Z,22.37
2022-10-28T12:29:46.218Z,22.36
2022-10-28T12:31:54.180Z,22.37
2022-10-28T12:33:59.792Z,22.43
2022-10-28T12:36:24.896Z,22.39
2022-10-28T12:38:43.067Z,22.42
2022-10-28T12:40:51.248Z,22.43
2022-10-28T12:43:08.273Z,22.41
2022-10-28T12:45:19.388Z,22.41
2022-10-28T12:47:31.316Z,22.42
2022-10-28T12:50:12.412Z,22.36
2022-10-28T12:52:25.004Z,22.39
2022-10-28T12:54:42.270Z,22.33
2022-10-28T12:56:57.196Z,22.29
2022-10-28T12:59:11.925Z,22.31
2022-10-28T13:01:18.389Z,22.31
2022-10-28T13:03:21.625Z,22.32
2022-10-28T13:05:31.877Z,22.31
2022-10-28T13:07:58.647Z,22.28
2022-10-28T13:10:18.259Z,22.21
2022-10-28T13:12:45.132Z,22.21
2022-10-28T13:15:12.916Z,22.22
2022-10-28T13:17:42.654Z,22.15
2022-10-28T13:20:37.527Z,22.11
2022-10-28T13:22:48.969Z,22.05
2022-10-28T13:25:03.149Z,22.07
2022-10-28T13:27:06.222Z,22.06
2022-10-28T13:29:20.646Z,22.01
2022-10-28T13:31:25.281Z,22.05
2022-10-28T13:33:29.860Z,22.03
2022-10-28T13:35:33.054Z,22.04
2022-10-28T13:37:36.949Z,22.02
2022-10-28T13:39:42.076Z,21.96
2022-10-28T13:41:47.895Z,21.96
2022-10-28T13:47:45.145Z,21.86
2022-10-28T13:50:09.081Z,21.85
2022-10-28T13:52:11.646Z,21.85
2022-10-28T13:54:30.493Z,21.78
2022-10-28T13:56:46.768Z,21.73
2022-10-28T13:58:53.863Z,21.64
2022-10-28T14:01:37.176Z,21.60
2022-10-28T14:03:39.402Z,21.61
2022-10-28T14:05:44.562Z,21.56
2022-10-28T14:07:56.208Z,21.53
2022-10-28T14:10:25.237Z,21.45
2022-10-28T14:12:32.885Z,21.45
2022-10-28T14:14:35.323Z,21.44
2022-10-28T14:16:39.525Z,21.42
2022-10-28T14:18:44.813Z,21.39
2022-10-28T14:20:47.513Z,21.38
2022-10-28T14:22:51.280Z,21.34
2022-10-28T14:24:53.818Z,21.29
2022-10-28T14:27:12.604Z,21.19
2022-10-28T14:29:28.047Z,21.14
2022-10-28T14:31:38.431Z,21.16
2022-10-28T14:33:43.594Z,21.16
2022-10-28T14:35:48.198Z,21.09
2022-10-28T14:38:04.012Z,21.07
2022-10-28T14:40:19.761Z,21.02
2022-10-28T14:42:46.753Z,20.97
2022-10-28T14:44:59.521Z,20.87
2022-10-28T14:47:20.142Z,20.87
2022-10-28T14:49:29.067Z,20.88
2022-10-28T14:51:39.563Z,20.86
2022-10-28T14:53:43.623Z,20.86
2022-10-28T14:55:57.679Z,20.81
2022-10-28T14:58:27.637Z,20.75
2022-10-28T15:00:29.938Z,20.77
2022-10-28T15:02:34.588Z,20.74
2022-10-28T15:04:39.481Z,20.69
2022-10-28T15:06:46.090Z,20.65
2022-10-28T15:08:48.490Z,20.63
2022-10-28T15:10:50.744Z,20.58
2022-10-28T15:12:55.234Z,20.52
2022-10-28T15:14:58.933Z,20.47
2022-10-28T15:17:16.161Z,20.38
2022-10-28T15:19:22.660Z,20.35
2022-10-28T15:21:24.832Z,20.32
2022-10-28T15:23:26.986Z,20.29
2022-10-28T15:25:29.892Z,20.27
2022-10-28T15:27:38.312Z,20.18
2022-10-28T15:29:42.603Z,20.17
2022-10-28T15:32:16.432Z,20.07
2022-10-28T15:34:21.618Z,20.05
2022-10-28T15:36:25.461Z,20.01
2022-10-28T15:38:40.605Z,19.92
2022-10-28T15:40:42.845Z,19.89
2022-10-28T15:43:21.111Z,19.72
2022-10-28T15:45:29.240Z,19.72
2022-10-28T15:47:36.038Z,19.68
2022-10-28T15:49:40.671Z,19.64
2022-10-28T15:51:42.862Z,19.58
2022-10-28T15:53:54.262Z,19.47
2022-10-28T15:56:29.705Z,19.38
2022-10-28T15:58:54.288Z,19.38
2022-10-28T16:00:58.589Z,19.33
2022-10-28T16:03:07.907Z,19.26
2022-10-28T16:05:33.180Z,19.15
2022-10-28T16:07:35.019Z,19.19
2022-10-28T16:09:44.164Z,19.10
2022-10-28T16:11:50.311Z,19.12
2022-10-28T16:13:52.792Z,19.10
2022-10-28T16:15:58.586Z,19.05
2022-10-28T16:18:02.059Z,19.02
2022-10-28T16:20:18.949Z,18.92
2022-10-28T16:22:25.834Z,18.93
2022-10-28T16:24:27.845Z,18.90
2022-10-28T16:26:32.635Z,18.85
2022-10-28T16:28:34.718Z,18.84
2022-10-28T16:30:36.827Z,18.80
2022-10-28T16:32:50.005Z,18.72
2022-10-28T16:34:52.010Z,18.71
2022-10-28T16:36:54.115Z,18.69
2022-10-28T16:38:56.395Z,18.66
2022-10-28T16:41:00.400Z,18.60
2022-10-28T16:43:02.572Z,18.59
2022-10-28T16:45:13.270Z,18.56
2022-10-28T16:47:18.072Z,18.53
2022-10-28T16:49:20.040Z,18.49
2022-10-28T16:51:22.006Z,18.46
2022-10-28T16:53:24.393Z,18.41
2022-10-28T16:55:27.724Z,18.39
2022-10-28T16:57:29.922Z,18.34
2022-10-28T16:59:32.080Z,18.33
2022-10-28T17:01:34.590Z,18.28
2022-10-28T17:03:36.642Z,18.23
2022-10-28T17:06:28.982Z,18.09
2022-10-28T17:09:00.846Z,18.12
2022-10-28T17:10:53.534Z,18.09
2022-10-28T17:12:56.395Z,18.06
2022-10-28T17:14:58.833Z,18.02
2022-10-28T17:17:00.854Z,17.98
2022-10-28T17:19:03.410Z,17.93
2022-10-28T17:21:05.762Z,17.88
2022-10-28T17:23:08.108Z,17.84
2022-10-28T17:25:10.755Z,17.79
2022-10-28T17:27:13.482Z,17.77
2022-10-28T17:29:15.521Z,17.74
2022-10-28T17:31:20.597Z,17.72
2022-10-28T17:33:26.215Z,17.67
2022-10-28T17:35:28.277Z,17.64
2022-10-28T17:37:34.472Z,17.61
2022-10-28T17:39:37.979Z,17.59
2022-10-28T17:41:40.007Z,17.56
2022-10-28T17:43:42.603Z,17.53
2022-10-28T17:45:44.661Z,17.52
2022-10-28T17:47:47.241Z,17.49
2022-10-28T17:49:49.238Z,17.43
2022-10-28T17:51:51.999Z,17.39
2022-10-28T17:53:55.753Z,17.37
2022-10-28T17:55:58.569Z,17.34
2022-10-28T17:58:00.404Z,17.30
2022-10-28T18:00:02.296Z,17.24
2022-10-28T18:02:14.672Z,17.19
2022-10-28T18:04:17.350Z,17.18
2022-10-28T18:06:19.229Z,17.14
2022-10-28T18:08:22.312Z,17.10
2022-10-28T18:10:24.322Z,17.07
2022-10-28T18:12:26.194Z,17.03
2022-10-28T18:14:28.679Z,17.00
2022-10-28T18:16:30.524Z,16.97
2022-10-28T18:18:32.629Z,16.94
2022-10-28T18:20:34.541Z,16.92
2022-10-28T18:22:36.485Z,16.89
2022-10-28T18:24:38.663Z,16.86
2022-10-28T18:26:41.443Z,16.84
2022-10-28T18:28:45.214Z,16.81
2022-10-28T18:30:47.109Z,16.80
2022-10-28T18:32:49.225Z,16.80
2022-10-28T18:34:51.407Z,16.78
2022-10-28T18:36:54.123Z,16.78
2022-10-28T18:38:58.546Z,16.75
2022-10-28T18:41:00.711Z,16.77
2022-10-28T18:43:02.720Z,16.76
2022-10-28T18:45:05.705Z,16.76
2022-10-28T18:47:07.720Z,16.76
2022-10-28T18:49:09.793Z,16.73
2022-10-28T18:51:13.132Z,16.70
2022-10-28T18:53:15.077Z,16.70
2022-10-28T18:55:17.163Z,16.67
2022-10-28T18:57:19.489Z,16.66
2022-10-28T18:59:21.675Z,16.69
2022-10-28T19:01:26.739Z,16.63
2022-10-28T19:03:29.035Z,16.65
2022-10-28T19:05:32.655Z,16.63
2022-10-28T19:07:35.042Z,16.62
2022-10-28T19:09:37.022Z,16.63
2022-10-28T19:11:39.114Z,16.63
2022-10-28T19:13:44.439Z,16.58
2022-10-28T19:15:47.384Z,16.62
2022-10-28T19:17:52.249Z,16.59
2022-10-28T19:19:54.965Z,16.61
2022-10-28T19:21:57.241Z,16.60
2022-10-28T19:23:59.456Z,16.61
2022-10-28T19:26:01.516Z,16.62
2022-10-28T19:28:03.556Z,16.63
2022-10-28T19:30:09.118Z,16.64
2022-10-28T19:32:14.702Z,16.64
2022-10-28T19:34:16.682Z,16.63
2022-10-28T19:36:21.832Z,16.62
2022-10-28T19:38:23.896Z,16.62
2022-10-28T19:40:25.957Z,16.60
2022-10-28T19:46:18.104Z,16.55
2022-10-28T19:48:20.174Z,16.58
2022-10-28T19:50:22.152Z,16.57
2022-10-28T19:56:01.090Z,16.54
2022-10-28T19:58:03.391Z,16.54
2022-10-28T20:00:06.143Z,16.53
2022-10-28T20:02:13.433Z,16.56
2022-10-28T20:04:17.533Z,16.54
2022-10-28T20:06:21.908Z,16.53
2022-10-28T20:08:24.229Z,16.52
2022-10-28T20:10:26.350Z,16.53
2022-10-28T20:12:28.500Z,16.53
2022-10-28T20:14:31.993Z,16.54
2022-10-28T20:16:34.965Z,16.55
2022-10-28T20:18:37.720Z,16.52
2022-10-28T20:20:39.794Z,16.50
2022-10-28T20:22:42.563Z,16.50
2022-10-28T20:24:45.215Z,16.49
2022-10-28T20:26:47.733Z,16.49
2022-10-28T20:28:51.820Z,16.50
2022-10-28T20:31:18.904Z,16.44
2022-10-28T20:33:21.067Z,16.48
2022-10-28T20:35:23.393Z,16.49
2022-10-28T20:37:25.794Z,16.49
2022-10-28T20:39:28.130Z,16.49
2022-10-28T20:41:32.301Z,16.49
2022-10-28T20:43:34.618Z,16.48
2022-10-28T20:45:36.778Z,16.50
2022-10-28T20:47:38.967Z,16.49
2022-10-28T20:49:43.394Z,16.46
2022-10-28T20:51:45.671Z,16.44
2022-10-28T20:53:49.167Z,16.45
2022-10-28T20:55:53.254Z,16.46
2022-10-28T20:57:55.656Z,16.45
2022-10-28T20:59:57.966Z,16.43
2022-10-28T21:02:00.160Z,16.43
2022-10-28T21:04:07.270Z,16.43
2022-10-28T21:06:10.271Z,16.43
2022-10-28T21:08:12.654Z,16.44
2022-10-28T21:10:17.426Z,16.40
2022-10-28T21:12:19.574Z,16.38
2022-10-28T21:14:22.171Z,16.39
2022-10-28T21:16:26.073Z,16.40
2022-10-28T21:18:28.221Z,16.41
2022-10-28T21:20:36.391Z,16.38
2022-10-28T21:22:38.556Z,16.40
2022-10-28T21:24:40.767Z,16.38
2022-10-28T21:26:43.723Z,16.38
2022-10-28T21:28:52.256Z,16.32
2022-10-28T21:31:06.588Z,16.29
2022-10-28T21:33:08.718Z,16.32
2022-10-28T21:35:11.175Z,16.32
2022-10-28T21:37:13.460Z,16.32
2022-10-28T21:39:15.992Z,16.32
2022-10-28T21:41:19.950Z,16.32
2022-10-28T21:43:25.953Z,16.32
2022-10-28T21:45:28.248Z,16.33
2022-10-28T21:47:30.729Z,16.31
2022-10-28T21:49:32.746Z,16.28
2022-10-28T21:51:35.056Z,16.28
2022-10-28T21:53:38.365Z,16.27
2022-10-28T21:55:46.535Z,16.25
2022-10-28T21:57:49.884Z,16.24
2022-10-28T21:59:52.069Z,16.26
2022-10-28T22:01:54.761Z,16.24
2022-10-28T22:03:56.982Z,16.24
2022-10-28T22:05:59.144Z,16.25
2022-10-28T22:08:03.188Z,16.23
2022-10-28T22:10:19.053Z,16.14
2022-10-28T22:12:21.265Z,16.19
2022-10-28T22:14:23.398Z,16.07
2022-10-28T22:16:29.673Z,16.05
2022-10-28T22:18:34.415Z,15.96
2022-10-28T22:20:36.595Z,15.98
2022-10-28T22:22:38.753Z,15.98
2022-10-28T22:24:40.801Z,15.97
2022-10-28T22:26:47.941Z,16.00
2022-10-28T22:28:51.037Z,16.01
2022-10-28T22:30:59.002Z,15.91
2022-10-28T22:33:03.620Z,15.86
2022-10-28T22:35:07.228Z,15.78
2022-10-28T22:37:09.690Z,15.80
2022-10-28T22:39:11.920Z,15.84
2022-10-28T22:41:19.948Z,15.87
2022-10-28T22:43:22.220Z,15.80
2022-10-28T22:45:24.270Z,15.75
2022-10-28T22:47:26.520Z,15.72
2022-10-28T22:49:28.532Z,15.68
2022-10-28T22:51:30.882Z,15.65
2022-10-28T22:53:33.272Z,15.59
2022-10-28T22:55:35.808Z,15.50
2022-10-28T22:57:38.061Z,15.43
2022-10-28T22:59:40.031Z,15.44
2022-10-28T23:01:42.449Z,15.49
2022-10-28T23:03:52.978Z,15.49
2022-10-28T23:05:57.508Z,15.52
2022-10-28T23:08:02.574Z,15.56
2022-10-28T23:10:05.239Z,15.61
2022-10-28T23:12:07.793Z,15.58
2022-10-28T23:14:09.933Z,15.60
2022-10-28T23:16:16.450Z,15.58
2022-10-28T23:18:18.455Z,15.62
2022-10-28T23:20:25.063Z,15.63
2022-10-28T23:22:29.135Z,15.53
2022-10-28T23:24:31.094Z,15.56
2022-10-28T23:26:33.201Z,15.64
2022-10-28T23:28:35.193Z,15.58
2022-10-28T23:30:37.367Z,15.54
2022-10-28T23:32:39.807Z,15.55
2022-10-28T23:34:41.876Z,15.55
2022-10-28T23:36:43.980Z,15.52
2022-10-28T23:38:46.378Z,15.57
2022-10-28T23:41:06.031Z,15.43
2022-10-28T23:43:08.196Z,15.31
2022-10-28T23:45:12.176Z,15.20
2022-10-28T23:47:14.457Z,15.29
2022-10-28T23:49:19.350Z,15.38
2022-10-28T23:51:21.453Z,15.47
2022-10-28T23:53:24.646Z,15.46
2022-10-28T23:55:26.924Z,15.43
2022-10-28T23:57:29.096Z,15.44
2022-10-28T23:59:31.281Z,15.39
